createdAt,value
2023-10-13T00:00:35.953Z,74.95
2023-10-13T00:03:04.531Z,75.11
2023-10-13T00:05:33.143Z,75.01
2023-10-13T00:08:02.643Z,74.84
2023-10-13T00:10:31.044Z,74.28
2023-10-13T00:13:07.486Z,74.58
2023-10-13T00:15:46.053Z,74.72
2023-10-13T00:18:15.327Z,75.09
2023-10-13T00:20:50.454Z,75.57
2023-10-13T00:23:22.371Z,76.89
2023-10-13T00:25:58.297Z,77.81
2023-10-13T00:28:27.984Z,78.21
2023-10-13T00:31:02.700Z,78.57
2023-10-13T00:33:33.449Z,78.70
2023-10-13T00:36:02.439Z,78.67
2023-10-13T00:38:30.589Z,78.08
2023-10-13T00:41:04.955Z,78.33
2023-10-13T00:43:39.147Z,78.24
2023-10-13T00:46:09.479Z,78.18
2023-10-13T00:48:44.681Z,78.04
2023-10-13T00:51:20.019Z,78.26
2023-10-13T00:53:49.058Z,78.81
2023-10-13T00:56:23.749Z,78.92
2023-10-13T00:58:53.618Z,79.91
2023-10-13T01:01:30.105Z,78.94
2023-10-13T01:04:00.428Z,78.26
2023-10-13T01:06:29.739Z,78.47
2023-10-13T01:09:11.818Z,78.75
2023-10-13T01:11:40.758Z,79.24
2023-10-13T01:14:07.710Z,79.15
2023-10-13T01:16:37.363Z,79.07
2023-10-13T01:19:06.529Z,79.47
2023-10-13T01:21:35.037Z,79.13
2023-10-13T01:24:08.981Z,79.06
2023-10-13T01:26:40.452Z,78.99
2023-10-13T01:29:15.621Z,79.58
2023-10-13T01:31:48.021Z,79.74
2023-10-13T01:34:23.465Z,81.69
2023-10-13T01:36:54.230Z,81.87
2023-10-13T01:39:29.764Z,81.50
2023-10-13T01:41:57.558Z,81.71
2023-10-13T01:44:29.407Z,81.67
2023-10-13T01:46:57.186Z,81.50
2023-10-13T01:49:25.281Z,81.07
2023-10-13T01:51:52.298Z,81.11
2023-10-13T01:54:22.366Z,81.65
2023-10-13T01:56:50.670Z,82.07
2023-10-13T01:59:19.829Z,82.84
2023-10-13T02:01:47.040Z,83.38
2023-10-13T02:04:16.181Z,83.21
2023-10-13T02:06:44.312Z,83.95
2023-10-13T02:09:14.522Z,84.24
2023-10-13T02:11:43.168Z,83.66
2023-10-13T02:14:13.365Z,83.90
2023-10-13T02:16:41.107Z,84.72
2023-10-13T02:19:09.924Z,85.35
2023-10-13T02:21:42.174Z,85.97
2023-10-13T02:24:14.738Z,86.16
2023-10-13T02:26:43.198Z,86.44
2023-10-13T02:29:14.206Z,86.21
2023-10-13T02:31:44.652Z,85.50
2023-10-13T02:34:14.620Z,85.03
2023-10-13T02:36:49.900Z,84.97
2023-10-13T02:39:17.441Z,83.71
2023-10-13T02:41:49.120Z,83.12
2023-10-13T02:44:27.825Z,82.67
2023-10-13T02:46:57.234Z,83.61
2023-10-13T02:49:27.222Z,83.81
2023-10-13T02:51:57.012Z,84.09
2023-10-13T02:54:31.371Z,85.23
2023-10-13T02:57:04.718Z,85.04
2023-10-13T02:59:41.274Z,84.38
2023-10-13T03:02:19.297Z,84.10
2023-10-13T03:04:49.237Z,83.80
2023-10-13T03:07:17.149Z,85.03
2023-10-13T03:09:52.155Z,85.45
2023-10-13T03:12:20.098Z,86.42
2023-10-13T03:14:49.916Z,85.98
2023-10-13T03:17:20.027Z,85.91
2023-10-13T03:19:51.355Z,85.49
2023-10-13T03:22:19.789Z,85.59
2023-10-13T03:24:48.653Z,85.63
2023-10-13T03:27:17.983Z,85.28
2023-10-13T03:29:49.439Z,85.24
2023-10-13T03:32:19.467Z,85.66
2023-10-13T03:34:55.924Z,86.07
2023-10-13T03:37:39.186Z,85.16
2023-10-13T03:40:29.427Z,85.22
2023-10-13T03:43:05.565Z,85.96
2023-10-13T03:45:38.880Z,86.72
2023-10-13T03:48:12.926Z,87.13
2023-10-13T03:50:47.682Z,87.38
2023-10-13T03:53:15.804Z,88.32
2023-10-13T03:55:49.375Z,87.36
2023-10-13T03:58:18.222Z,87.78
2023-10-13T04:00:46.653Z,87.19
2023-10-13T04:03:19.234Z,87.44
2023-10-13T04:06:02.222Z,87.79
2023-10-13T04:09:09.498Z,87.09
2023-10-13T04:12:06.801Z,87.07
2023-10-13T04:14:50.844Z,87.61
2023-10-13T04:17:23.964Z,87.48
2023-10-13T04:20:08.288Z,87.65
2023-10-13T04:22:51.817Z,87.46
2023-10-13T04:25:36.543Z,87.75
2023-10-13T04:28:17.916Z,88.57
2023-10-13T04:31:00.505Z,88.48
2023-10-13T04:33:44.994Z,89.32
2023-10-13T04:36:17.925Z,89.85
2023-10-13T04:38:57.588Z,89.67
2023-10-13T04:41:32.926Z,89.59
2023-10-13T04:44:24.201Z,88.81
2023-10-13T04:47:06.615Z,89.96
2023-10-13T04:49:51.189Z,91.08
2023-10-13T04:52:52.334Z,91.25
2023-10-13T04:55:34.293Z,90.79
2023-10-13T04:58:12.234Z,91.01
2023-10-13T05:01:17.058Z,90.35
2023-10-13T05:04:22.656Z,88.92
2023-10-13T05:07:08.005Z,87.37
2023-10-13T05:12:40.292Z,88.22
2023-10-13T05:15:25.882Z,88.68
2023-10-13T05:18:11.167Z,89.44
2023-10-13T05:20:56.512Z,89.32
2023-10-13T05:23:41.704Z,88.66
2023-10-13T05:26:28.561Z,88.14
2023-10-13T05:29:26.262Z,88.73
2023-10-13T05:32:14.522Z,88.38
2023-10-13T05:34:59.855Z,87.96
2023-10-13T05:37:45.532Z,86.98
2023-10-13T05:40:31.138Z,86.34
2023-10-13T05:43:18.031Z,85.50
2023-10-13T05:46:00.336Z,84.42
2023-10-13T05:48:44.137Z,84.13
2023-10-13T05:51:29.998Z,83.36
2023-10-13T05:54:15.805Z,83.25
2023-10-13T05:57:10.464Z,82.71
2023-10-13T05:59:57.806Z,81.79
2023-10-13T06:02:55.602Z,81.42
2023-10-13T06:05:41.212Z,80.54
2023-10-13T06:08:26.598Z,79.89
2023-10-13T06:11:21.243Z,78.84
2023-10-13T06:14:07.474Z,78.54
2023-10-13T06:16:54.338Z,78.40
2023-10-13T06:19:39.958Z,77.58
2023-10-13T06:22:25.693Z,77.29
2023-10-13T06:25:10.901Z,76.02
2023-10-13T06:27:56.300Z,75.68
2023-10-13T06:30:24.324Z,75.93
2023-10-13T06:32:54.611Z,75.43
2023-10-13T06:35:25.200Z,74.92
2023-10-13T06:37:53.769Z,74.43
2023-10-13T06:40:27.634Z,74.01
2023-10-13T06:42:57.058Z,73.62
2023-10-13T06:45:29.355Z,73.35
2023-10-13T06:47:59.783Z,71.99
2023-10-13T06:50:30.122Z,71.48
2023-10-13T06:52:58.536Z,70.63
2023-10-13T06:55:28.914Z,69.80
2023-10-13T06:58:01.277Z,69.39
2023-10-13T07:00:31.312Z,69.20
2023-10-13T07:03:08.300Z,68.75
2023-10-13T07:05:39.315Z,68.72
2023-10-13T07:08:08.509Z,68.25
2023-10-13T07:10:46.079Z,67.69
2023-10-13T07:13:14.933Z,67.38
2023-10-13T07:15:47.161Z,67.29
2023-10-13T07:18:18.992Z,66.61
2023-10-13T07:20:47.264Z,65.96
2023-10-13T07:23:21.221Z,65.79
2023-10-13T07:25:58.982Z,65.63
2023-10-13T07:28:26.942Z,65.11
2023-10-13T07:31:08.804Z,64.87
2023-10-13T07:33:38.101Z,63.82
2023-10-13T07:36:16.927Z,63.42
2023-10-13T07:38:56.191Z,63.57
2023-10-13T07:41:33.069Z,62.83
2023-10-13T07:44:00.978Z,61.86
2023-10-13T07:46:32.495Z,60.86
2023-10-13T07:49:11.991Z,59.58
2023-10-13T07:51:45.471Z,59.50
2023-10-13T07:54:22.942Z,59.55
2023-10-13T07:56:51.946Z,59.54
2023-10-13T07:59:23.541Z,59.03
2023-10-13T08:02:12.394Z,58.80
2023-10-13T08:04:41.883Z,58.62
2023-10-13T08:07:14.942Z,58.75
2023-10-13T08:09:52.827Z,57.90
2023-10-13T08:12:22.731Z,57.37
2023-10-13T08:15:10.626Z,56.75
2023-10-13T08:17:38.667Z,56.18
2023-10-13T08:20:13.393Z,55.85
2023-10-13T08:22:48.383Z,55.58
2023-10-13T08:25:47.227Z,56.16
2023-10-13T08:28:40.172Z,54.69
2023-10-13T08:31:23.547Z,54.78
2023-10-13T08:33:50.666Z,54.77
2023-10-13T08:36:31.016Z,54.91
2023-10-13T08:39:13.444Z,54.63
2023-10-13T08:41:55.104Z,53.32
2023-10-13T08:44:45.050Z,52.82
2023-10-13T08:47:19.229Z,52.50
2023-10-13T08:49:52.282Z,52.61
2023-10-13T08:52:46.796Z,52.35
2023-10-13T08:55:40.766Z,51.90
2023-10-13T08:58:14.465Z,52.45
2023-10-13T09:01:13.500Z,50.96
2023-10-13T09:03:42.636Z,51.07
2023-10-13T09:06:16.219Z,50.98
2023-10-13T09:09:02.792Z,51.61
2023-10-13T09:11:50.210Z,49.43
2023-10-13T09:14:34.803Z,49.48
2023-10-13T09:17:09.403Z,48.10
2023-10-13T09:19:49.852Z,48.75
2023-10-13T09:22:36.738Z,48.32
2023-10-13T09:25:07.343Z,47.95
2023-10-13T09:27:34.755Z,47.44
2023-10-13T09:30:10.842Z,46.76
2023-10-13T09:32:46.626Z,45.73
2023-10-13T09:35:24.245Z,45.05
2023-10-13T09:37:52.313Z,45.14
2023-10-13T09:40:28.572Z,45.67
2023-10-13T09:42:57.872Z,44.13
2023-10-13T09:45:31.202Z,43.81
2023-10-13T09:48:07.559Z,44.03
2023-10-13T09:50:42.444Z,44.17
2023-10-13T09:53:11.607Z,44.04
2023-10-13T09:55:46.852Z,43.97
2023-10-13T09:58:16.365Z,43.68
2023-10-13T10:00:49.791Z,42.88
2023-10-13T10:03:31.157Z,42.82
2023-10-13T10:06:07.318Z,43.28
2023-10-13T10:08:35.932Z,43.63
2023-10-13T10:11:29.599Z,44.31
2023-10-13T10:14:38.612Z,43.98
2023-10-13T10:17:11.092Z,42.79
2023-10-13T10:19:49.474Z,42.28
2023-10-13T10:22:29.705Z,42.34
2023-10-13T10:25:01.292Z,42.28
2023-10-13T10:27:31.308Z,41.71
2023-10-13T10:30:02.244Z,41.59
2023-10-13T10:32:42.049Z,41.57
2023-10-13T10:35:16.514Z,41.00
2023-10-13T10:37:49.505Z,40.97
2023-10-13T10:40:34.806Z,40.69
2023-10-13T10:43:14.088Z,39.95
2023-10-13T10:45:52.165Z,40.99
2023-10-13T10:48:22.325Z,40.83
2023-10-13T10:50:57.321Z,39.66
2023-10-13T10:53:34.474Z,39.73
2023-10-13T10:56:20.947Z,38.60
2023-10-13T10:58:49.871Z,39.14
2023-10-13T11:01:22.812Z,38.89
2023-10-13T11:03:59.561Z,38.63
2023-10-13T11:06:28.933Z,38.82
2023-10-13T11:09:19.668Z,38.33
2023-10-13T11:11:53.626Z,38.64
2023-10-13T11:14:25.712Z,38.21
2023-10-13T11:16:56.466Z,38.67
2023-10-13T11:19:36.453Z,38.30
2023-10-13T11:22:13.570Z,37.72
2023-10-13T11:24:43.852Z,37.23
2023-10-13T11:27:22.261Z,37.39
2023-10-13T11:29:53.746Z,37.86
2023-10-13T11:32:23.333Z,37.58
2023-10-13T11:34:55.987Z,38.34
2023-10-13T11:37:39.636Z,38.59
2023-10-13T11:40:16.620Z,38.79
2023-10-13T11:42:48.664Z,39.33
2023-10-13T11:45:30.231Z,41.04
2023-10-13T11:48:01.177Z,41.20
2023-10-13T11:50:35.791Z,39.06
2023-10-13T11:53:08.741Z,39.33
2023-10-13T11:55:37.795Z,37.62
2023-10-13T11:58:07.217Z,38.13
2023-10-13T12:00:49.189Z,36.50
2023-10-13T12:03:36.003Z,36.70
2023-10-13T12:06:20.730Z,37.04
2023-10-13T12:08:53.842Z,37.46
2023-10-13T12:11:33.930Z,37.24
2023-10-13T12:14:12.935Z,36.92
2023-10-13T12:16:41.148Z,36.68
2023-10-13T12:19:12.793Z,36.47
2023-10-13T12:21:42.133Z,36.57
2023-10-13T12:24:13.606Z,36.50
2023-10-13T12:26:44.130Z,34.77
2023-10-13T12:29:23.785Z,35.52
2023-10-13T12:32:02.727Z,34.85
2023-10-13T12:34:53.534Z,34.35
2023-10-13T12:37:39.563Z,34.83
2023-10-13T12:40:26.856Z,34.86
2023-10-13T12:43:12.707Z,31.88
2023-10-13T12:45:59.025Z,32.45
2023-10-13T12:48:44.353Z,32.75
2023-10-13T12:51:22.303Z,31.92
2023-10-13T12:53:50.538Z,32.19
2023-10-13T12:56:19.138Z,32.88
2023-10-13T12:58:53.242Z,33.14
2023-10-13T13:01:22.441Z,32.37
2023-10-13T13:03:51.295Z,32.51
2023-10-13T13:06:26.031Z,33.76
2023-10-13T13:08:54.189Z,32.81
2023-10-13T13:11:24.685Z,32.17
2023-10-13T13:13:54.118Z,32.38
2023-10-13T13:16:25.652Z,33.39
2023-10-13T13:18:55.958Z,32.43
2023-10-13T13:21:25.540Z,33.06
2023-10-13T13:23:56.103Z,32.68
2023-10-13T13:26:24.494Z,31.71
2023-10-13T13:28:53.193Z,30.88
2023-10-13T13:31:26.477Z,31.83
2023-10-13T13:33:54.634Z,30.66
2023-10-13T13:36:23.750Z,29.53
2023-10-13T13:38:55.904Z,31.62
2023-10-13T13:41:23.961Z,31.43
2023-10-13T13:43:58.012Z,30.71
2023-10-13T13:46:28.991Z,31.42
2023-10-13T13:49:00.795Z,32.01
2023-10-13T13:51:29.188Z,32.57
2023-10-13T13:53:58.704Z,32.64
2023-10-13T13:56:29.554Z,32.58
2023-10-13T13:58:57.910Z,31.80
2023-10-13T14:01:27.048Z,30.50
2023-10-13T14:03:58.233Z,31.29
2023-10-13T14:06:28.233Z,30.95
2023-10-13T14:09:01.148Z,30.57
2023-10-13T14:11:48.821Z,30.51
2023-10-13T14:14:30.193Z,30.56
2023-10-13T14:17:04.950Z,31.00
2023-10-13T14:19:33.007Z,31.36
2023-10-13T14:22:07.491Z,31.95
2023-10-13T14:24:44.909Z,31.92
2023-10-13T14:27:17.099Z,32.23
2023-10-13T14:29:45.360Z,32.37
2023-10-13T14:32:15.044Z,31.72
2023-10-13T14:34:44.554Z,33.36
2023-10-13T14:37:14.190Z,33.50
2023-10-13T14:39:44.024Z,33.47
2023-10-13T14:42:11.947Z,33.90
2023-10-13T14:44:40.323Z,34.05
2023-10-13T14:47:10.365Z,34.42
2023-10-13T14:49:38.808Z,34.10
2023-10-13T14:52:06.868Z,34.26
2023-10-13T14:54:35.026Z,34.46
2023-10-13T14:57:04.926Z,34.33
2023-10-13T14:59:39.559Z,33.29
2023-10-13T15:02:08.746Z,33.58
2023-10-13T15:04:37.219Z,33.67
2023-10-13T15:07:05.220Z,34.00
2023-10-13T15:09:33.285Z,33.79
2023-10-13T15:12:06.549Z,34.16
2023-10-13T15:14:38.227Z,34.30
2023-10-13T15:17:07.454Z,33.99
2023-10-13T15:19:37.340Z,34.20
2023-10-13T15:22:07.330Z,33.96
2023-10-13T15:24:44.246Z,34.55
2023-10-13T15:27:12.187Z,34.17
2023-10-13T15:29:41.522Z,34.64
2023-10-13T15:32:23.412Z,34.52
2023-10-13T15:34:51.386Z,34.58
2023-10-13T15:37:20.742Z,34.69
2023-10-13T15:39:48.821Z,35.19
2023-10-13T15:42:16.821Z,35.57
2023-10-13T15:44:46.298Z,35.87
2023-10-13T15:49:45.316Z,35.87
2023-10-13T15:52:14.012Z,36.14
2023-10-13T15:54:42.138Z,36.17
2023-10-13T15:57:17.570Z,35.67
2023-10-13T15:59:47.628Z,35.33
2023-10-13T16:02:18.364Z,35.11
2023-10-13T16:04:46.737Z,35.32
2023-10-13T16:07:15.155Z,35.53
2023-10-13T16:09:45.211Z,35.38
2023-10-13T16:12:16.618Z,35.65
2023-10-13T16:14:46.179Z,35.56
2023-10-13T16:17:14.293Z,35.72
2023-10-13T16:19:42.355Z,36.17
2023-10-13T16:22:11.301Z,37.63
2023-10-13T16:24:39.397Z,36.14
2023-10-13T16:27:07.655Z,36.26
2023-10-13T16:29:35.677Z,36.65
2023-10-13T16:32:05.332Z,36.85
2023-10-13T16:34:33.345Z,36.56
2023-10-13T16:37:06.209Z,36.50
2023-10-13T16:39:34.326Z,35.92
2023-10-13T16:42:02.383Z,36.86
2023-10-13T16:44:30.272Z,37.09
2023-10-13T16:47:02.031Z,37.48
2023-10-13T16:49:32.561Z,37.15
2023-10-13T16:52:01.614Z,37.16
2023-10-13T16:54:30.181Z,37.51
2023-10-13T16:56:58.273Z,36.99
2023-10-13T16:59:27.999Z,37.96
2023-10-13T17:01:56.413Z,37.60
2023-10-13T17:04:28.268Z,37.99
2023-10-13T17:06:57.905Z,37.67
2023-10-13T17:09:26.484Z,37.48
2023-10-13T17:11:54.818Z,37.69
2023-10-13T17:14:22.959Z,37.63
2023-10-13T17:16:51.335Z,37.76
2023-10-13T17:19:20.839Z,37.29
2023-10-13T17:21:50.284Z,37.49
2023-10-13T17:24:20.865Z,37.66
2023-10-13T17:26:51.008Z,37.55
2023-10-13T17:29:23.843Z,37.97
2023-10-13T17:31:51.903Z,37.82
2023-10-13T17:34:20.318Z,37.89
2023-10-13T17:36:50.131Z,37.96
2023-10-13T17:39:20.407Z,38.39
2023-10-13T17:41:49.529Z,38.61
2023-10-13T17:44:18.234Z,38.41
2023-10-13T17:46:46.450Z,38.49
2023-10-13T17:49:14.398Z,39.22
2023-10-13T17:51:44.416Z,38.75
2023-10-13T17:54:12.559Z,38.98
2023-10-13T17:56:42.162Z,39.07
2023-10-13T17:59:12.446Z,38.58
2023-10-13T18:01:40.370Z,38.97
2023-10-13T18:04:13.115Z,38.78
2023-10-13T18:06:43.843Z,38.86
2023-10-13T18:09:13.305Z,39.42
2023-10-13T18:11:44.067Z,39.08
2023-10-13T18:14:12.891Z,39.48
2023-10-13T18:16:42.729Z,39.23
2023-10-13T18:19:11.086Z,38.73
2023-10-13T18:21:39.511Z,38.89
2023-10-13T18:24:09.691Z,39.04
2023-10-13T18:26:37.713Z,39.32
2023-10-13T18:29:10.282Z,39.92
2023-10-13T18:31:39.065Z,40.80
2023-10-13T18:34:07.350Z,41.29
2023-10-13T18:36:36.128Z,41.86
2023-10-13T18:39:08.303Z,42.46
2023-10-13T18:41:37.478Z,42.70
2023-10-13T18:44:10.729Z,42.83
2023-10-13T18:46:39.175Z,42.68
2023-10-13T18:49:07.442Z,42.84
2023-10-13T18:51:36.112Z,43.10
2023-10-13T18:54:04.114Z,43.42
2023-10-13T18:56:33.898Z,43.67
2023-10-13T18:59:03.648Z,43.83
2023-10-13T19:01:35.860Z,43.62
2023-10-13T19:04:05.418Z,43.88
2023-10-13T19:06:35.576Z,43.59
2023-10-13T19:09:06.432Z,43.43
2023-10-13T19:11:36.261Z,44.13
2023-10-13T19:14:05.517Z,43.86
2023-10-13T19:16:36.857Z,44.32
2023-10-13T19:19:05.558Z,44.11
2023-10-13T19:21:37.735Z,43.82
2023-10-13T19:24:07.680Z,44.51
2023-10-13T19:26:37.522Z,44.67
2023-10-13T19:29:07.152Z,44.64
2023-10-13T19:31:37.151Z,44.82
2023-10-13T19:34:06.461Z,44.72
2023-10-13T19:36:35.841Z,44.08
2023-10-13T19:39:09.302Z,44.33
2023-10-13T19:41:38.282Z,44.65
2023-10-13T19:44:06.826Z,45.05
2023-10-13T19:46:37.760Z,45.33
2023-10-13T19:49:06.769Z,45.99
2023-10-13T19:51:35.915Z,46.44
2023-10-13T19:54:05.236Z,46.29
2023-10-13T19:56:33.796Z,46.43
2023-10-13T19:59:03.501Z,46.79
2023-10-13T20:01:34.874Z,47.30
2023-10-13T20:04:08.939Z,47.29
2023-10-13T20:06:37.442Z,48.28
2023-10-13T20:09:19.370Z,48.38
2023-10-13T20:11:47.627Z,48.08
2023-10-13T20:14:15.822Z,47.92
2023-10-13T20:16:46.184Z,48.09
2023-10-13T20:19:17.728Z,47.88
2023-10-13T20:21:46.433Z,48.01
2023-10-13T20:24:15.104Z,47.69
2023-10-13T20:26:44.284Z,47.90
2023-10-13T20:29:17.202Z,48.43
2023-10-13T20:31:48.718Z,48.28
2023-10-13T20:34:20.976Z,48.67
2023-10-13T20:36:49.442Z,49.29
2023-10-13T20:39:25.327Z,49.64
2023-10-13T20:41:53.761Z,49.94
2023-10-13T20:44:26.950Z,49.57
2023-10-13T20:46:56.993Z,49.91
2023-10-13T20:49:28.859Z,50.91
2023-10-13T20:51:56.974Z,50.99
2023-10-13T20:54:24.945Z,51.25
2023-10-13T20:56:55.843Z,51.28
2023-10-13T20:59:24.029Z,51.73
2023-10-13T21:01:53.984Z,51.57
2023-10-13T21:04:22.552Z,52.09
2023-10-13T21:06:51.952Z,52.21
2023-10-13T21:09:22.348Z,51.74
2023-10-13T21:11:50.779Z,51.57
2023-10-13T21:14:18.952Z,51.52
2023-10-13T21:16:46.950Z,52.20
2023-10-13T21:19:14.941Z,52.59
2023-10-13T21:21:43.033Z,52.31
2023-10-13T21:24:12.558Z,52.78
2023-10-13T21:26:40.617Z,52.87
2023-10-13T21:29:09.980Z,53.66
2023-10-13T21:31:38.813Z,54.24
2023-10-13T21:34:08.288Z,53.98
2023-10-13T21:36:39.146Z,54.07
2023-10-13T21:39:07.287Z,54.83
2023-10-13T21:41:38.580Z,55.91
2023-10-13T21:44:08.004Z,55.88
2023-10-13T21:46:37.105Z,55.26
2023-10-13T21:49:08.122Z,55.40
2023-10-13T21:51:37.221Z,55.10
2023-10-13T21:54:08.807Z,55.96
2023-10-13T21:56:40.095Z,55.85
2023-10-13T21:59:19.663Z,56.30
2023-10-13T22:01:47.716Z,56.63
2023-10-13T22:04:22.522Z,56.75
2023-10-13T22:06:50.759Z,56.68
2023-10-13T22:09:19.768Z,56.61
2023-10-13T22:11:50.097Z,56.26
2023-10-13T22:14:19.071Z,56.01
2023-10-13T22:16:47.353Z,56.17
2023-10-13T22:19:15.508Z,56.99
2023-10-13T22:21:43.521Z,56.94
2023-10-13T22:24:14.645Z,57.13
2023-10-13T22:26:44.559Z,57.26
2023-10-13T22:29:14.822Z,58.02
2023-10-13T22:31:42.972Z,58.16
2023-10-13T22:34:13.392Z,58.17
2023-10-13T22:36:48.835Z,58.48
2023-10-13T22:39:27.462Z,58.44
2023-10-13T22:41:55.402Z,58.76
2023-10-13T22:44:24.854Z,58.01
2023-10-13T22:46:54.666Z,58.94
2023-10-13T22:49:23.322Z,59.26
2023-10-13T22:51:51.739Z,59.33
2023-10-13T22:54:22.250Z,59.55
2023-10-13T22:56:51.158Z,59.65
2023-10-13T22:59:19.333Z,59.31
2023-10-13T23:01:48.697Z,59.59
2023-10-13T23:04:17.300Z,58.57
2023-10-13T23:06:50.924Z,57.85
2023-10-13T23:09:26.325Z,58.37
2023-10-13T23:11:57.563Z,58.83
2023-10-13T23:14:26.756Z,58.86
2023-10-13T23:16:56.172Z,59.33
2023-10-13T23:19:24.675Z,59.56
2023-10-13T23:21:52.819Z,60.67
2023-10-13T23:24:23.978Z,61.45
2023-10-13T23:26:51.985Z,61.89
2023-10-13T23:29:20.060Z,61.54
2023-10-13T23:31:48.178Z,61.52
2023-10-13T23:34:17.969Z,61.94
2023-10-13T23:36:46.162Z,62.14
2023-10-13T23:39:29.142Z,61.90
2023-10-13T23:42:00.173Z,61.83
2023-10-13T23:44:33.815Z,61.93
2023-10-13T23:47:02.679Z,62.17
2023-10-13T23:49:32.271Z,62.61
2023-10-13T23:52:03.842Z,62.69
2023-10-13T23:54:40.264Z,61.97
2023-10-13T23:57:08.752Z,61.95
2023-10-13T23:59:41.822Z,62.16
